createdAt,value
2022-08-02T00:01:01.800Z,2.88
2022-08-02T00:03:29.397Z,3.50
2022-08-02T00:05:58.651Z,3.30
2022-08-02T00:08:29.529Z,3.53
2022-08-02T00:10:57.165Z,3.70
2022-08-02T00:13:24.867Z,3.47
2022-08-02T00:15:52.497Z,2.92
2022-08-02T00:18:20.297Z,3.15
2022-08-02T00:20:47.986Z,3.72
2022-08-02T00:23:15.674Z,3.10
2022-08-02T00:25:55.365Z,3.42
2022-08-02T00:28:27.179Z,2.63
2022-08-02T00:30:57.954Z,3.42
2022-08-02T00:34:26.655Z,2.70
2022-08-02T00:36:15.569Z,3.10
2022-08-02T00:38:43.991Z,3.95
2022-08-02T00:41:21.411Z,3.50
2022-08-02T00:43:51.920Z,3.53
2022-08-02T00:46:20.882Z,3.65
2022-08-02T00:48:49.860Z,3.65
2022-08-02T00:51:20.950Z,3.80
2022-08-02T00:53:49.180Z,4.10
2022-08-02T00:56:16.752Z,4.15
2022-08-02T00:58:46.642Z,4.13
2022-08-02T01:01:15.876Z,3.80
2022-08-02T01:03:44.847Z,4.88
2022-08-02T01:06:12.694Z,4.55
2022-08-02T01:08:40.598Z,5.30
2022-08-02T01:11:08.380Z,6.63
2022-08-02T01:13:36.666Z,5.07
2022-08-02T01:16:19.694Z,6.15
2022-08-02T01:18:54.673Z,6.90
2022-08-02T01:22:10.023Z,6.35
2022-08-02T01:24:48.495Z,9.50
2022-08-02T01:28:00.921Z,8.75
2022-08-02T01:30:32.283Z,9.00
2022-08-02T01:33:03.269Z,9.45
2022-08-02T01:35:47.316Z,8.18
2022-08-02T01:38:42.109Z,8.57
2022-08-02T01:41:19.132Z,9.85
2022-08-02T01:43:51.564Z,9.23
2022-08-02T01:46:20.465Z,9.25
2022-08-02T01:48:50.447Z,9.80
2022-08-02T01:51:20.195Z,11.57
2022-08-02T01:53:51.078Z,10.25
2022-08-02T01:56:23.472Z,11.70
2022-08-02T01:58:53.341Z,10.65
2022-08-02T02:01:25.029Z,11.90
2022-08-02T02:03:52.831Z,11.77
2022-08-02T02:06:21.976Z,12.20
2022-08-02T02:08:51.319Z,12.57
2022-08-02T02:12:10.073Z,13.52
2022-08-02T02:14:08.527Z,12.90
2022-08-02T02:16:37.458Z,12.35
2022-08-02T02:19:07.192Z,12.38
2022-08-02T02:21:35.201Z,13.15
2022-08-02T02:24:05.940Z,14.27
2022-08-02T02:26:42.948Z,12.32
2022-08-02T02:29:22.417Z,12.73
2022-08-02T02:31:51.691Z,13.52
2022-08-02T02:34:28.183Z,13.63
2022-08-02T02:36:59.731Z,13.88
2022-08-02T02:39:29.747Z,13.07
2022-08-02T02:42:03.109Z,11.68
2022-08-02T02:44:32.505Z,12.80
2022-08-02T02:47:02.246Z,11.90
2022-08-02T02:49:35.343Z,12.77
2022-08-02T02:52:05.920Z,11.88
2022-08-02T02:54:35.553Z,12.05
2022-08-02T02:57:06.070Z,11.60
2022-08-02T02:59:36.091Z,13.45
2022-08-02T03:02:12.311Z,13.43
2022-08-02T03:04:56.992Z,13.68
2022-08-02T03:07:29.465Z,12.60
2022-08-02T03:10:00.664Z,12.43
2022-08-02T03:12:32.146Z,12.95
2022-08-02T03:15:05.074Z,12.45
2022-08-02T03:17:44.818Z,12.68
2022-08-02T03:20:18.950Z,12.75
2022-08-02T03:22:47.496Z,12.88
2022-08-02T03:25:16.553Z,12.85
2022-08-02T03:27:44.470Z,12.48
2022-08-02T03:30:14.190Z,11.32
2022-08-02T03:32:48.373Z,13.00
2022-08-02T03:35:23.421Z,13.27
2022-08-02T03:37:54.478Z,13.63
2022-08-02T03:40:23.107Z,12.15
2022-08-02T03:42:51.044Z,14.07
2022-08-02T03:45:19.572Z,13.13
2022-08-02T03:47:47.331Z,13.43
2022-08-02T03:50:15.156Z,13.23
2022-08-02T03:52:44.494Z,13.02
2022-08-02T03:55:13.725Z,11.93
2022-08-02T03:57:42.918Z,13.38
2022-08-02T04:00:18.591Z,11.85
2022-08-02T04:02:47.257Z,12.15
2022-08-02T04:05:16.321Z,9.98
2022-08-02T04:08:34.489Z,10.95
2022-08-02T04:10:32.149Z,11.52
2022-08-02T04:12:59.953Z,11.25
2022-08-02T04:15:27.633Z,11.07
2022-08-02T04:17:58.712Z,10.88
2022-08-02T04:20:36.033Z,9.93
2022-08-02T04:23:12.005Z,11.05
2022-08-02T04:25:42.853Z,11.10
2022-08-02T04:28:17.055Z,9.75
2022-08-02T04:30:51.093Z,10.05
2022-08-02T04:33:19.208Z,10.15
2022-08-02T04:35:47.154Z,10.70
2022-08-02T04:38:15.829Z,10.15
2022-08-02T04:40:55.572Z,10.05
2022-08-02T04:43:24.091Z,10.15
2022-08-02T04:45:55.437Z,9.65
2022-08-02T04:48:26.271Z,9.63
2022-08-02T04:50:53.939Z,9.23
2022-08-02T04:53:21.740Z,8.27
2022-08-02T04:55:49.434Z,9.95
2022-08-02T04:58:39.937Z,9.65
2022-08-02T05:01:05.843Z,9.68
2022-08-02T05:03:33.568Z,9.52
2022-08-02T05:06:01.236Z,9.50
2022-08-02T05:08:28.873Z,10.20
2022-08-02T05:10:56.553Z,10.05
2022-08-02T05:13:24.189Z,10.30
2022-08-02T05:15:51.922Z,10.25
2022-08-02T05:18:19.727Z,9.90
2022-08-02T05:20:47.507Z,9.63
2022-08-02T05:23:15.077Z,10.13
2022-08-02T05:25:42.889Z,9.98
2022-08-02T05:28:11.741Z,9.27
2022-08-02T05:30:40.509Z,9.90
2022-08-02T05:33:08.413Z,9.70
2022-08-02T05:35:36.390Z,10.00
2022-08-02T05:38:04.197Z,9.95
2022-08-02T05:40:31.811Z,9.45
2022-08-02T05:42:59.471Z,9.43
2022-08-02T05:45:27.367Z,9.82
2022-08-02T05:47:54.987Z,9.80
2022-08-02T05:50:24.309Z,9.27
2022-08-02T05:53:04.965Z,9.38
2022-08-02T05:55:48.685Z,9.70
2022-08-02T05:58:33.520Z,9.93
2022-08-02T06:01:04.006Z,9.68
2022-08-02T06:03:36.921Z,8.40
2022-08-02T06:06:20.846Z,8.75
2022-08-02T06:08:55.889Z,8.82
2022-08-02T06:11:25.230Z,9.65
2022-08-02T06:13:54.312Z,9.25
2022-08-02T06:16:32.140Z,9.65
2022-08-02T06:19:01.842Z,9.43
2022-08-02T06:22:35.789Z,9.73
2022-08-02T06:24:19.821Z,8.85
2022-08-02T06:26:52.680Z,9.15
2022-08-02T06:29:23.190Z,9.10
2022-08-02T06:31:54.006Z,9.20
2022-08-02T06:34:21.833Z,8.95
2022-08-02T06:37:10.221Z,9.85
2022-08-02T06:40:03.884Z,9.75
2022-08-02T06:42:44.100Z,8.88
2022-08-02T06:45:11.788Z,8.23
2022-08-02T06:47:39.389Z,9.23
2022-08-02T06:50:07.678Z,8.70
2022-08-02T06:52:36.196Z,8.70
2022-08-02T06:55:06.530Z,8.25
2022-08-02T06:57:34.765Z,7.70
2022-08-02T07:00:08.835Z,7.90
2022-08-02T07:02:37.456Z,7.55
2022-08-02T07:05:06.725Z,7.15
2022-08-02T07:07:38.709Z,6.93
2022-08-02T07:10:06.795Z,7.07
2022-08-02T07:12:36.537Z,7.20
2022-08-02T07:15:10.127Z,6.30
2022-08-02T07:17:37.746Z,6.57
2022-08-02T07:20:06.522Z,6.47
2022-08-02T07:22:34.178Z,5.65
2022-08-02T07:25:02.189Z,5.60
2022-08-02T07:27:30.422Z,6.03
2022-08-02T07:29:58.631Z,6.57
2022-08-02T07:32:32.081Z,5.75
2022-08-02T07:35:02.683Z,5.72
2022-08-02T07:37:55.639Z,5.55
2022-08-02T07:40:26.722Z,5.10
2022-08-02T07:43:02.741Z,5.60
2022-08-02T07:45:36.027Z,5.60
2022-08-02T07:48:04.157Z,5.60
2022-08-02T07:50:31.861Z,5.40
2022-08-02T07:52:59.815Z,5.75
2022-08-02T07:55:39.063Z,5.10
2022-08-02T07:58:12.954Z,4.45
2022-08-02T08:00:45.000Z,4.30
2022-08-02T08:03:13.352Z,4.70
2022-08-02T08:05:41.197Z,4.35
2022-08-02T08:08:12.396Z,4.70
2022-08-02T08:10:45.045Z,4.25
2022-08-02T08:13:12.729Z,3.83
2022-08-02T08:15:40.314Z,3.88
2022-08-02T08:18:08.096Z,3.85
2022-08-02T08:20:38.835Z,3.85
2022-08-02T08:23:06.459Z,3.58
2022-08-02T08:25:39.890Z,3.70
2022-08-02T08:28:09.492Z,3.20
2022-08-02T08:30:37.175Z,3.50
2022-08-02T08:33:04.854Z,3.80
2022-08-02T08:35:32.707Z,3.58
2022-08-02T08:38:03.083Z,3.53
2022-08-02T08:40:35.112Z,3.47
2022-08-02T08:43:03.547Z,2.92
2022-08-02T08:45:31.709Z,3.80
2022-08-02T08:48:13.758Z,2.83
2022-08-02T08:50:57.410Z,3.53
2022-08-02T08:53:36.705Z,3.05
2022-08-02T08:56:05.475Z,2.92
2022-08-02T08:58:33.045Z,3.83
2022-08-02T09:01:00.841Z,3.53
2022-08-02T09:03:28.473Z,2.83
2022-08-02T09:06:02.976Z,2.78
2022-08-02T09:08:32.695Z,3.28
2022-08-02T09:11:00.504Z,3.13
2022-08-02T09:13:37.487Z,2.72
2022-08-02T09:16:14.443Z,2.15
2022-08-02T09:18:46.869Z,2.60
2022-08-02T09:21:16.786Z,1.95
2022-08-02T09:23:50.778Z,1.90
2022-08-02T09:26:22.753Z,1.85
2022-08-02T09:31:29.324Z,2.60
2022-08-02T09:34:01.072Z,1.40
2022-08-02T09:36:42.504Z,1.77
2022-08-02T09:39:13.618Z,1.73
2022-08-02T09:41:45.335Z,1.67
2022-08-02T09:44:16.643Z,1.60
2022-08-02T09:46:46.871Z,1.50
2022-08-02T09:49:20.137Z,1.73
2022-08-02T09:51:52.532Z,1.88
2022-08-02T09:54:29.305Z,1.70
2022-08-02T09:57:01.798Z,1.50
2022-08-02T09:59:30.880Z,1.90
2022-08-02T10:02:02.472Z,2.13
2022-08-02T10:04:34.159Z,1.75
2022-08-02T10:07:04.868Z,1.80
2022-08-02T10:09:33.686Z,2.08
2022-08-02T10:12:05.862Z,1.80
2022-08-02T10:14:34.790Z,2.30
2022-08-02T10:17:05.201Z,1.90
2022-08-02T10:20:00.870Z,2.00
2022-08-02T10:22:24.564Z,1.63
2022-08-02T10:24:52.952Z,1.60
2022-08-02T10:27:21.912Z,1.70
2022-08-02T10:29:54.995Z,1.77
2022-08-02T10:32:47.823Z,1.60
2022-08-02T10:35:25.355Z,1.52
2022-08-02T10:38:03.480Z,1.70
2022-08-02T10:40:44.580Z,1.77
2022-08-02T10:43:14.065Z,1.60
2022-08-02T10:45:41.766Z,1.63
2022-08-02T10:48:14.552Z,1.13
2022-08-02T10:50:48.350Z,1.60
2022-08-02T10:53:31.846Z,1.63
2022-08-02T10:56:03.716Z,1.75
2022-08-02T10:58:33.616Z,1.80
2022-08-02T11:01:38.894Z,1.70
2022-08-02T11:04:10.514Z,1.67
2022-08-02T11:07:17.027Z,1.50
2022-08-02T11:09:50.247Z,1.70
2022-08-02T11:12:21.527Z,1.73
2022-08-02T11:15:07.746Z,1.52
2022-08-02T11:18:01.741Z,2.22
2022-08-02T11:20:29.381Z,1.55
2022-08-02T11:23:45.221Z,1.80
2022-08-02T11:26:31.679Z,1.80
2022-08-02T11:29:06.464Z,2.00
2022-08-02T11:31:46.444Z,1.70
2022-08-02T11:34:37.282Z,1.63
2022-08-02T11:37:07.622Z,1.55
2022-08-02T11:39:35.357Z,1.70
2022-08-02T11:42:03.371Z,1.55
2022-08-02T11:44:41.905Z,1.20
2022-08-02T11:47:09.681Z,1.40
2022-08-02T11:49:37.605Z,2.22
2022-08-02T11:52:08.185Z,1.33
2022-08-02T11:54:42.763Z,1.30
2022-08-02T11:57:21.664Z,1.50
2022-08-02T11:59:52.263Z,1.38
2022-08-02T12:02:23.833Z,1.92
2022-08-02T12:04:58.430Z,1.55
2022-08-02T12:07:36.997Z,1.75
2022-08-02T12:10:23.248Z,1.38
2022-08-02T12:13:00.011Z,1.30
2022-08-02T12:15:33.359Z,1.52
2022-08-02T12:18:21.021Z,1.30
2022-08-02T12:20:48.943Z,1.77
2022-08-02T12:23:16.525Z,1.50
2022-08-02T12:25:58.975Z,1.10
2022-08-02T12:28:27.810Z,1.30
2022-08-02T12:31:00.615Z,1.33
2022-08-02T12:33:45.724Z,1.20
2022-08-02T12:36:22.905Z,1.50
2022-08-02T12:39:01.578Z,1.40
2022-08-02T12:41:32.100Z,1.00
2022-08-02T12:44:00.689Z,1.52
2022-08-02T12:46:29.482Z,1.10
2022-08-02T12:49:16.672Z,1.30
2022-08-02T12:51:55.805Z,1.38
2022-08-02T12:54:39.588Z,1.27
2022-08-02T12:57:16.681Z,1.30
2022-08-02T12:59:53.472Z,1.20
2022-08-02T13:02:21.791Z,1.25
2022-08-02T13:04:50.314Z,1.08
2022-08-02T13:07:19.464Z,1.40
2022-08-02T13:09:48.431Z,1.35
2022-08-02T13:12:16.888Z,1.00
2022-08-02T13:14:44.831Z,1.00
2022-08-02T13:17:12.579Z,1.55
2022-08-02T13:19:42.202Z,0.98
2022-08-02T13:22:10.490Z,1.27
2022-08-02T13:24:55.222Z,1.38
2022-08-02T13:27:26.920Z,1.25
2022-08-02T13:29:55.975Z,1.17
2022-08-02T13:32:25.288Z,1.00
2022-08-02T13:34:52.931Z,1.23
2022-08-02T13:37:20.834Z,1.00
2022-08-02T13:40:06.031Z,1.20
2022-08-02T13:42:36.453Z,1.10
2022-08-02T13:45:12.685Z,1.00
2022-08-02T13:48:04.090Z,0.80
2022-08-02T13:50:32.878Z,1.27
2022-08-02T13:53:00.488Z,0.93
2022-08-02T13:55:28.396Z,0.70
2022-08-02T13:57:56.477Z,1.00
2022-08-02T14:00:34.962Z,1.23
2022-08-02T14:03:06.022Z,1.30
2022-08-02T14:05:47.533Z,1.35
2022-08-02T14:08:20.843Z,0.82
2022-08-02T14:10:50.081Z,1.00
2022-08-02T14:13:18.686Z,1.20
2022-08-02T14:15:47.127Z,0.90
2022-08-02T14:18:15.688Z,0.90
2022-08-02T14:20:45.167Z,1.05
2022-08-02T14:23:12.846Z,1.15
2022-08-02T14:25:40.868Z,0.98
2022-08-02T14:28:08.786Z,1.35
2022-08-02T14:30:36.508Z,1.00
2022-08-02T14:33:04.216Z,1.42
2022-08-02T14:35:31.907Z,1.75
2022-08-02T14:38:00.030Z,1.00
2022-08-02T14:40:31.708Z,0.90
2022-08-02T14:43:01.389Z,1.00
2022-08-02T14:45:36.749Z,0.95
2022-08-02T14:48:11.307Z,1.05
2022-08-02T14:50:39.023Z,1.20
2022-08-02T14:53:06.635Z,1.08
2022-08-02T14:55:42.645Z,1.38
2022-08-02T14:58:12.311Z,1.23
2022-08-02T15:00:41.578Z,0.93
2022-08-02T15:03:11.776Z,0.93
2022-08-02T15:05:40.563Z,0.90
2022-08-02T15:08:08.269Z,1.10
2022-08-02T15:10:36.129Z,1.30
2022-08-02T15:13:03.795Z,1.08
2022-08-02T15:15:31.663Z,0.95
2022-08-02T15:18:00.203Z,0.93
2022-08-02T15:20:28.479Z,0.68
2022-08-02T15:22:56.350Z,1.15
2022-08-02T15:25:25.754Z,0.80
2022-08-02T15:27:53.386Z,1.00
2022-08-02T15:30:21.101Z,1.23
2022-08-02T15:32:53.162Z,1.38
2022-08-02T15:35:21.816Z,1.10
2022-08-02T15:37:49.527Z,0.80
2022-08-02T15:40:17.361Z,1.02
2022-08-02T15:42:45.191Z,0.98
2022-08-02T15:45:15.514Z,1.40
2022-08-02T15:47:48.114Z,0.80
2022-08-02T15:50:18.862Z,0.98
2022-08-02T15:52:46.916Z,0.90
2022-08-02T15:55:17.407Z,0.90
2022-08-02T15:57:45.116Z,1.33
2022-08-02T16:00:18.934Z,0.93
2022-08-02T16:02:47.890Z,1.00
2022-08-02T16:05:18.040Z,1.02
2022-08-02T16:07:46.642Z,1.05
2022-08-02T16:10:18.035Z,0.82
2022-08-02T16:12:45.727Z,0.80
2022-08-02T16:15:13.374Z,0.77
2022-08-02T16:17:49.570Z,0.80
2022-08-02T16:20:22.869Z,0.75
2022-08-02T16:22:50.567Z,0.90
2022-08-02T16:25:18.318Z,0.98
2022-08-02T16:27:59.580Z,0.90
2022-08-02T16:30:33.779Z,0.70
2022-08-02T16:33:01.481Z,0.93
2022-08-02T16:35:29.332Z,1.08
2022-08-02T16:37:56.929Z,1.10
2022-08-02T16:40:24.722Z,1.10
2022-08-02T16:42:52.594Z,1.05
2022-08-02T16:45:21.441Z,0.80
2022-08-02T16:47:55.844Z,0.95
2022-08-02T16:50:28.971Z,1.10
2022-08-02T16:52:58.103Z,0.90
2022-08-02T16:55:29.204Z,1.20
2022-08-02T16:58:00.982Z,1.10
2022-08-02T17:00:29.232Z,0.90
2022-08-02T17:02:59.235Z,0.90
2022-08-02T17:05:37.501Z,1.10
2022-08-02T17:08:16.042Z,1.00
2022-08-02T17:10:45.306Z,1.10
2022-08-02T17:13:13.362Z,1.30
2022-08-02T17:16:16.619Z,0.93
2022-08-02T17:18:30.916Z,1.10
2022-08-02T17:20:58.813Z,0.75
2022-08-02T17:24:03.896Z,0.90
2022-08-02T17:26:14.325Z,1.00
2022-08-02T17:29:03.797Z,0.80
2022-08-02T17:31:37.231Z,2.08
2022-08-02T17:34:10.091Z,1.48
2022-08-02T17:36:38.327Z,0.93
2022-08-02T17:39:07.224Z,1.13
2022-08-02T17:41:37.863Z,1.42
2022-08-02T17:44:37.566Z,0.95
2022-08-02T17:47:07.265Z,1.42
2022-08-02T17:49:43.916Z,1.40
2022-08-02T17:52:48.694Z,4.30
2022-08-02T17:55:03.498Z,2.75
2022-08-02T17:57:55.987Z,2.55
2022-08-02T18:00:20.283Z,2.00
2022-08-02T18:02:52.774Z,1.70
2022-08-02T18:05:39.049Z,1.50
2022-08-02T18:08:07.877Z,2.15
2022-08-02T18:10:35.580Z,1.77
2022-08-02T18:13:05.315Z,1.65
2022-08-02T18:15:33.402Z,1.70
2022-08-02T18:18:01.278Z,2.17
2022-08-02T18:20:28.949Z,2.20
2022-08-02T18:22:58.695Z,10.98
2022-08-02T18:25:37.746Z,2.33
2022-08-02T18:28:15.109Z,3.88
2022-08-02T18:30:44.005Z,5.93
2022-08-02T18:34:00.061Z,2.40
2022-08-02T18:35:59.490Z,2.55
2022-08-02T18:38:30.211Z,1.60
2022-08-02T18:41:02.799Z,1.90
2022-08-02T18:43:36.374Z,1.80
2022-08-02T18:46:15.363Z,1.80
2022-08-02T18:48:47.736Z,1.63
2022-08-02T18:51:18.845Z,1.90
2022-08-02T18:53:52.306Z,1.73
2022-08-02T18:56:24.581Z,1.80
2022-08-02T18:58:54.416Z,2.05
2022-08-02T19:01:33.970Z,1.48
2022-08-02T19:04:05.194Z,1.80
2022-08-02T19:06:33.325Z,1.95
2022-08-02T19:09:12.842Z,1.80
2022-08-02T19:11:48.284Z,1.73
2022-08-02T19:14:27.014Z,1.60
2022-08-02T19:17:00.501Z,1.70
2022-08-02T19:19:44.240Z,1.88
2022-08-02T19:22:26.459Z,1.63
2022-08-02T19:25:00.203Z,1.60
2022-08-02T19:27:32.655Z,1.70
2022-08-02T19:30:04.234Z,1.40
2022-08-02T19:32:40.198Z,2.47
2022-08-02T19:35:29.022Z,1.30
2022-08-02T19:38:09.326Z,1.27
2022-08-02T19:40:39.107Z,1.70
2022-08-02T19:44:24.592Z,1.20
2022-08-02T19:45:57.489Z,1.20
2022-08-02T19:48:27.206Z,1.30
2022-08-02T19:51:00.759Z,1.35
2022-08-02T19:53:47.799Z,1.63
2022-08-02T19:56:25.357Z,1.25
2022-08-02T19:58:57.812Z,1.55
2022-08-02T20:01:37.231Z,1.50
2022-08-02T20:04:13.101Z,1.23
2022-08-02T20:06:45.894Z,1.63
2022-08-02T20:09:16.509Z,1.63
2022-08-02T20:11:45.966Z,1.45
2022-08-02T20:14:13.674Z,2.05
2022-08-02T20:16:41.799Z,1.20
2022-08-02T20:19:09.850Z,0.95
2022-08-02T20:21:43.740Z,1.38
2022-08-02T20:24:14.181Z,1.42
2022-08-02T20:26:47.664Z,1.30
2022-08-02T20:29:17.733Z,2.13
2022-08-02T20:32:05.778Z,1.50
2022-08-02T20:34:36.269Z,1.90
2022-08-02T20:37:59.844Z,1.40
2022-08-02T20:39:53.719Z,1.70
2022-08-02T20:42:23.313Z,1.67
2022-08-02T20:44:55.481Z,1.52
2022-08-02T20:47:38.908Z,2.03
2022-08-02T20:50:30.471Z,1.80
2022-08-02T20:53:04.285Z,1.95
2022-08-02T20:55:32.909Z,1.75
2022-08-02T20:58:02.215Z,1.60
2022-08-02T21:00:31.750Z,1.52
2022-08-02T21:03:02.692Z,1.50
2022-08-02T21:05:55.226Z,1.73
2022-08-02T21:11:12.899Z,1.20
2022-08-02T21:13:46.982Z,1.40
2022-08-02T21:16:29.604Z,1.85
2022-08-02T21:18:59.999Z,2.15
2022-08-02T21:21:29.779Z,1.60
2022-08-02T21:24:01.467Z,1.98
2022-08-02T21:26:48.796Z,1.83
2022-08-02T21:29:16.527Z,1.65
2022-08-02T21:31:44.134Z,1.70
2022-08-02T21:34:22.326Z,1.30
2022-08-02T21:36:55.865Z,1.27
2022-08-02T21:39:24.936Z,1.40
2022-08-02T21:41:53.121Z,1.20
2022-08-02T21:44:22.386Z,1.40
2022-08-02T21:46:54.000Z,1.92
2022-08-02T21:49:40.666Z,1.38
2022-08-02T21:52:12.334Z,1.45
2022-08-02T21:54:40.816Z,1.88
2022-08-02T21:57:15.144Z,1.27
2022-08-02T21:59:46.467Z,1.60
2022-08-02T22:02:16.383Z,1.35
2022-08-02T22:04:47.944Z,1.52
2022-08-02T22:07:23.924Z,1.80
2022-08-02T22:09:53.126Z,1.58
2022-08-02T22:12:21.190Z,1.80
2022-08-02T22:14:55.772Z,2.40
2022-08-02T22:17:50.841Z,1.98
2022-08-02T22:20:19.674Z,1.48
2022-08-02T22:22:52.493Z,1.58
2022-08-02T22:25:35.986Z,1.60
2022-08-02T22:28:38.957Z,1.48
2022-08-02T22:34:05.550Z,1.73
2022-08-02T22:36:43.315Z,1.20
2022-08-02T22:39:18.852Z,1.85
2022-08-02T22:42:05.549Z,1.35
2022-08-02T22:44:35.779Z,1.30
2022-08-02T22:47:07.479Z,1.30
2022-08-02T22:49:52.856Z,1.02
2022-08-02T22:52:25.266Z,1.30
2022-08-02T22:54:54.814Z,1.15
2022-08-02T22:57:30.471Z,1.13
2022-08-02T22:59:04.978Z,1.25
2022-08-02T22:59:11.207Z,1.73
2022-08-02T23:00:00.412Z,1.20
2022-08-02T23:02:28.205Z,1.10
2022-08-02T23:04:58.073Z,1.30
2022-08-02T23:07:25.763Z,1.40
2022-08-02T23:09:53.588Z,1.60
2022-08-02T23:12:21.429Z,1.00
2022-08-02T23:14:51.319Z,1.23
2022-08-02T23:17:38.797Z,1.13
2022-08-02T23:20:12.503Z,1.30
2022-08-02T23:22:40.385Z,1.75
2022-08-02T23:25:08.781Z,1.40
2022-08-02T23:27:36.720Z,1.50
2022-08-02T23:30:06.582Z,1.65
2022-08-02T23:32:34.409Z,1.15
2022-08-02T23:35:07.538Z,1.27
2022-08-02T23:37:59.492Z,1.13
2022-08-02T23:40:39.486Z,1.27
2022-08-02T23:43:14.772Z,1.07
2022-08-02T23:45:45.179Z,1.33
2022-08-02T23:48:12.976Z,1.40
2022-08-02T23:50:40.655Z,1.50
2022-08-02T23:53:08.275Z,1.23
2022-08-02T23:55:35.881Z,1.60
2022-08-02T23:58:03.456Z,1.30
